Time;durP1;ratioP1;P1;durP2;ratioP2;P2;SDS_P1;SDS_P2;PMS_P1;PMS_P2;Temp;Humidity;BMP_temperature;BMP_pressure;BME280_temperature;BME280_humidity;BME280_pressure;Samples;Min_cycle;Max_cycle;Signal;HPM_P1;HPM_P2
2023/01/12 00:01:27;;;;;;;;;;;;;;;10.47;86.33;100528.06;5075832;28;19927;-59
2023/01/12 00:03:53;;;;;;;;;;;;;;;10.46;85.95;100516.56;5086123;28;20390;-59
2023/01/12 00:06:19;;;;;;;;;;;;;;;10.48;86.46;100513.84;5084429;28;19946;-59
2023/01/12 00:08:45;;;;;;;;;;;;;;;10.49;86.64;100511.16;5090158;28;19956;-59
2023/01/12 00:11:10;;;;;;;;;;;;;;;10.54;86.24;100514.56;5081939;28;19936;-59
2023/01/12 00:13:36;;;;;;;;;;;;;;;10.53;86.19;100506.63;5091547;28;19948;-58
2023/01/12 00:18:46;;;;;;;;;;;;;;;10.57;86.19;100519.84;5078165;28;19941;-59
2023/01/12 00:21:11;;;;;;;;;;;;;;;10.56;86.49;100518.09;5085568;28;20629;-59
2023/01/12 00:23:37;;;;;;;;;;;;;;;10.47;87.00;100510.34;5091781;28;20055;-59
2023/01/12 00:26:02;;;;;;;;;;;;;;;10.46;88.00;100503.25;5087876;28;19984;-59
2023/01/12 00:28:28;;;;;;;;;;;;;;;10.40;87.71;100510.50;5091727;28;19954;-59
2023/01/12 00:30:58;;;;;;;;;;;;;;;10.47;88.24;100501.47;5093026;28;20041;-59
2023/01/12 00:33:23;;;;;;;;;;;;;;;10.40;88.23;100500.75;5081554;28;19934;-59
2023/01/12 00:35:48;;;;;;;;;;;;;;;10.39;89.23;100504.31;5092819;28;19931;-59
2023/01/12 00:38:14;;;;;;;;;;;;;;;10.38;88.35;100505.22;5080022;28;19953;-59
2023/01/12 00:40:39;;;;;;;;;;;;;;;10.35;89.31;100502.66;5072268;28;19928;-59
2023/01/12 00:45:51;;;;;;;;;;;;;;;10.39;90.14;100499.00;5072300;28;19986;-58
2023/01/12 00:48:16;;;;;;;;;;;;;;;10.37;89.88;100491.97;5074309;28;20029;-59
2023/01/12 00:50:42;;;;;;;;;;;;;;;10.32;90.73;100494.75;5072225;28;20072;-59
2023/01/12 00:53:07;;;;;;;;;;;;;;;10.28;90.58;100484.25;5074377;28;20316;-59
2023/01/12 00:55:32;;;;;;;;;;;;;;;10.32;91.42;100484.13;5074312;28;19968;-58
2023/01/12 00:57:57;;;;;;;;;;;;;;;10.31;91.65;100479.69;5071857;28;19931;-58
2023/01/12 01:00:23;;;;;;;;;;;;;;;10.28;91.55;100479.78;5071630;28;20017;-59
2023/01/12 01:02:48;;;;;;;;;;;;;;;10.34;91.99;100482.31;5071577;28;19994;-59
2023/01/12 01:05:13;;;;;;;;;;;;;;;10.32;91.99;100476.13;5073786;28;20041;-58
2023/01/12 01:07:39;;;;;;;;;;;;;;;10.29;91.42;100481.53;5081609;28;19947;-59
2023/01/12 01:10:04;;;;;;;;;;;;;;;10.32;92.12;100486.78;5085369;28;20429;-59
2023/01/12 01:12:30;;;;;;;;;;;;;;;10.27;91.95;100483.34;5079287;28;19940;-59
2023/01/12 01:14:55;;;;;;;;;;;;;;;10.28;91.91;100490.41;5092092;28;19930;-59
2023/01/12 01:17:20;;;;;;;;;;;;;;;10.27;92.43;100494.00;5075165;28;20405;-59
2023/01/12 01:19:47;;;;;;;;;;;;;;;10.25;91.91;100502.88;5071638;28;19995;-59
2023/01/12 01:22:12;;;;;;;;;;;;;;;10.27;92.25;100509.94;5073777;28;19949;-59
2023/01/12 01:24:37;;;;;;;;;;;;;;;10.26;91.86;100508.16;5077324;28;19928;-58
2023/01/12 01:27:03;;;;;;;;;;;;;;;10.29;92.19;100507.25;5112213;28;20017;-59
2023/01/12 01:29:28;;;;;;;;;;;;;;;10.26;92.23;100510.81;5075409;28;20009;-59
2023/01/12 01:31:53;;;;;;;;;;;;;;;10.27;93.63;100515.25;5094488;28;19939;-59
2023/01/12 01:34:19;;;;;;;;;;;;;;;10.24;94.14;100499.38;5082393;28;20305;-58
2023/01/12 01:36:44;;;;;;;;;;;;;;;10.20;94.52;100503.00;5072662;28;20342;-59
2023/01/12 01:39:09;;;;;;;;;;;;;;;10.17;94.00;100511.06;5090166;28;19938;-59
2023/01/12 01:41:34;;;;;;;;;;;;;;;10.21;94.91;100510.06;5090726;28;20111;-59
2023/01/12 01:44:04;;;;;;;;;;;;;;;10.23;94.64;100518.03;5078971;28;19950;-58
2023/01/12 01:46:30;;;;;;;;;;;;;;;10.26;94.62;100521.47;5070593;28;20317;-59
2023/01/12 01:48:56;;;;;;;;;;;;;;;10.19;94.96;100516.34;5072809;28;19951;-58
2023/01/12 01:51:21;;;;;;;;;;;;;;;10.21;94.64;100520.69;5071268;28;20030;-58
2023/01/12 01:53:47;;;;;;;;;;;;;;;10.15;93.99;100520.84;5071391;28;19977;-59
2023/01/12 01:56:19;;;;;;;;;;;;;;;10.14;94.05;100524.44;5073348;28;19969;-59
2023/01/12 01:59:16;;;;;;;;;;;;;;;10.12;95.34;100520.03;5071081;28;19930;-58
2023/01/12 02:01:42;;;;;;;;;;;;;;;10.05;95.07;100521.06;5021565;28;20084;-60
2023/01/12 02:04:07;;;;;;;;;;;;;;;10.06;95.38;100513.06;5027746;28;20447;-60
2023/01/12 02:06:33;;;;;;;;;;;;;;;10.08;94.60;100502.44;5088773;28;19931;-60
2023/01/12 02:09:13;;;;;;;;;;;;;;;10.04;95.17;100485.63;5088509;28;19954;-59
2023/01/12 02:17:09;;;;;;;;;;;;;;;10.06;95.23;100477.63;5071194;28;20300;-60
2023/01/12 02:20:00;;;;;;;;;;;;;;;10.05;95.45;100465.25;5074259;28;19986;-60
2023/01/12 02:22:27;;;;;;;;;;;;;;;10.03;95.05;100467.06;5073806;28;19945;-60
2023/01/12 02:25:01;;;;;;;;;;;;;;;10.08;95.55;100460.75;5070716;28;19933;-59
2023/01/12 02:27:44;;;;;;;;;;;;;;;10.03;95.68;100446.66;5071253;28;20282;-59
2023/01/12 02:30:28;;;;;;;;;;;;;;;10.01;95.84;100459.16;5070803;28;19956;-60
2023/01/12 02:33:07;;;;;;;;;;;;;;;10.04;95.76;100479.44;5073702;28;19962;-60
2023/01/12 02:35:35;;;;;;;;;;;;;;;10.05;95.29;100484.72;5090041;28;19939;-60
2023/01/12 02:38:03;;;;;;;;;;;;;;;9.96;94.91;100478.75;5076594;28;19942;-60
2023/01/12 02:40:46;;;;;;;;;;;;;;;9.96;95.45;100468.13;5070956;28;19986;-60
2023/01/12 02:43:16;;;;;;;;;;;;;;;9.99;95.88;100462.72;5073195;28;19951;-60
2023/01/12 02:46:00;;;;;;;;;;;;;;;9.96;96.24;100454.84;5070918;28;20048;-59
2023/01/12 02:48:26;;;;;;;;;;;;;;;9.90;95.76;100444.34;5070431;28;20023;-60
2023/01/12 02:51:10;;;;;;;;;;;;;;;9.90;96.72;100449.66;5072002;28;20366;-59
2023/01/12 02:53:41;;;;;;;;;;;;;;;9.87;96.91;100461.22;5077104;28;19950;-60
2023/01/12 02:56:09;;;;;;;;;;;;;;;9.85;97.79;100463.03;5074382;28;19966;-60
2023/01/12 02:58:37;;;;;;;;;;;;;;;9.85;97.51;100457.72;5076016;28;19940;-59
2023/01/12 03:01:03;;;;;;;;;;;;;;;9.89;98.10;100469.16;5074527;28;19989;-60
2023/01/12 03:03:29;;;;;;;;;;;;;;;9.86;97.96;100459.50;5080218;28;20472;-60
2023/01/12 03:05:56;;;;;;;;;;;;;;;9.92;97.35;100459.34;5094545;28;19953;-60
2023/01/12 03:08:24;;;;;;;;;;;;;;;9.90;96.80;100445.22;5090163;28;19942;-60
2023/01/12 03:10:58;;;;;;;;;;;;;;;9.94;96.46;100452.22;5094384;28;19944;-59
2023/01/12 03:13:24;;;;;;;;;;;;;;;9.94;96.81;100457.53;5094426;28;19927;-60
2023/01/12 03:15:51;;;;;;;;;;;;;;;9.94;96.78;100449.56;5092558;28;19931;-60
2023/01/12 03:18:21;;;;;;;;;;;;;;;9.94;96.96;100436.28;5092001;28;19937;-59
2023/01/12 03:20:49;;;;;;;;;;;;;;;9.99;96.52;100455.63;5094460;28;19936;-60
2023/01/12 03:23:18;;;;;;;;;;;;;;;10.01;96.74;100443.19;5091202;28;20402;-60
2023/01/12 03:25:44;;;;;;;;;;;;;;;10.01;95.78;100447.63;5094212;28;19931;-60
2023/01/12 03:28:12;;;;;;;;;;;;;;;10.03;95.27;100440.50;5093961;28;20621;-60
2023/01/12 03:30:39;;;;;;;;;;;;;;;10.06;95.61;100441.31;5092483;28;20003;-60
2023/01/12 03:33:05;;;;;;;;;;;;;;;10.12;94.42;100437.63;5091747;28;19953;-60
2023/01/12 03:35:34;;;;;;;;;;;;;;;10.14;94.57;100444.69;5096245;28;19947;-60
2023/01/12 03:38:06;;;;;;;;;;;;;;;10.14;94.28;100423.41;5062641;28;19986;-59
2023/01/12 03:40:42;;;;;;;;;;;;;;;10.16;93.82;100420.72;5073689;28;19932;-60
2023/01/12 03:43:14;;;;;;;;;;;;;;;10.17;93.85;100426.00;5075915;28;19939;-59
2023/01/12 03:45:58;;;;;;;;;;;;;;;10.24;93.24;100419.63;5073532;28;19945;-60
2023/01/12 03:48:26;;;;;;;;;;;;;;;10.23;93.29;100428.50;5073453;28;19932;-60
2023/01/12 03:51:05;;;;;;;;;;;;;;;10.22;93.43;100426.75;5073540;28;19939;-60
2023/01/12 03:53:31;;;;;;;;;;;;;;;10.22;91.94;100425.88;5087307;28;20001;-59
2023/01/12 03:55:58;;;;;;;;;;;;;;;10.20;92.04;100427.69;5093281;28;20441;-60
2023/01/12 03:58:24;;;;;;;;;;;;;;;10.25;91.99;100416.03;5091667;28;19946;-59
2023/01/12 04:00:49;;;;;;;;;;;;;;;10.23;91.43;100407.22;5092214;28;20035;-59
2023/01/12 04:03:15;;;;;;;;;;;;;;;10.23;92.48;100407.22;5092815;28;19974;-59
2023/01/12 04:05:41;;;;;;;;;;;;;;;10.17;92.25;100406.50;5093319;28;19950;-59
2023/01/12 04:08:07;;;;;;;;;;;;;;;10.17;92.36;100402.06;5080664;28;19949;-60
2023/01/12 04:10:32;;;;;;;;;;;;;;;10.19;92.49;100399.38;5088455;28;19956;-60
2023/01/12 04:12:58;;;;;;;;;;;;;;;10.19;91.59;100400.25;5089888;28;19940;-60
2023/01/12 04:15:23;;;;;;;;;;;;;;;10.21;92.21;100398.41;5092918;28;19931;-60
2023/01/12 04:17:48;;;;;;;;;;;;;;;10.21;92.33;100403.72;5092228;28;19936;-59
2023/01/12 04:20:13;;;;;;;;;;;;;;;10.21;91.70;100401.06;5093146;28;20401;-59
2023/01/12 04:22:42;;;;;;;;;;;;;;;10.22;92.25;100391.31;5087943;28;19946;-60
2023/01/12 04:25:07;;;;;;;;;;;;;;;10.27;91.51;100392.97;5072676;28;19928;-59
2023/01/12 04:27:32;;;;;;;;;;;;;;;10.30;91.23;100392.00;5078435;28;19943;-59
2023/01/12 04:29:58;;;;;;;;;;;;;;;10.34;91.43;100399.00;5092839;28;20058;-60
2023/01/12 04:32:23;;;;;;;;;;;;;;;10.35;90.56;100398.06;5083216;28;19942;-60
2023/01/12 04:34:48;;;;;;;;;;;;;;;10.37;90.35;100399.78;5080601;28;19954;-59
2023/01/12 04:37:14;;;;;;;;;;;;;;;10.37;91.02;100405.09;5085994;28;19931;-59
2023/01/12 04:39:39;;;;;;;;;;;;;;;10.42;90.11;100400.56;5072384;28;19927;-59
2023/01/12 04:42:04;;;;;;;;;;;;;;;10.40;89.82;100394.38;5072455;28;19976;-60
2023/01/12 04:44:31;;;;;;;;;;;;;;;10.45;89.94;100396.91;5072359;28;19943;-60
2023/01/12 04:46:56;;;;;;;;;;;;;;;10.42;89.48;100402.31;5074958;28;19947;-59
2023/01/12 04:49:21;;;;;;;;;;;;;;;10.47;90.37;100400.41;5072279;28;20404;-60
2023/01/12 04:51:47;;;;;;;;;;;;;;;10.50;89.76;100393.25;5074611;28;20033;-60
2023/01/12 04:54:12;;;;;;;;;;;;;;;10.49;90.66;100403.91;5072206;28;20454;-60
2023/01/12 04:56:37;;;;;;;;;;;;;;;10.47;89.69;100389.78;5072121;28;20000;-60
2023/01/12 04:59:05;;;;;;;;;;;;;;;10.46;90.32;100404.84;5083803;28;19950;-59
2023/01/12 05:01:30;;;;;;;;;;;;;;;10.50;90.29;100411.84;5092407;28;19942;-59
2023/01/12 05:03:59;;;;;;;;;;;;;;;10.46;90.30;100407.50;5092220;28;20396;-60
2023/01/12 05:06:24;;;;;;;;;;;;;;;10.46;90.63;100394.22;5091275;28;19931;-60
2023/01/12 05:11:33;;;;;;;;;;;;;;;10.46;90.31;100394.22;5072127;28;20001;-60
2023/01/12 05:13:59;;;;;;;;;;;;;;;10.44;89.33;100393.38;5073593;28;20689;-60
2023/01/12 05:16:26;;;;;;;;;;;;;;;10.49;89.45;100383.50;5088787;28;19956;-59
2023/01/12 05:18:52;;;;;;;;;;;;;;;10.47;89.28;100384.47;5092328;28;19940;-59
2023/01/12 05:21:18;;;;;;;;;;;;;;;10.51;89.13;100380.78;5091947;28;20531;-60
2023/01/12 05:23:43;;;;;;;;;;;;;;;10.52;89.34;100366.59;5087761;28;19928;-59
2023/01/12 05:26:09;;;;;;;;;;;;;;;10.54;89.27;100370.94;5091904;28;19934;-60
2023/01/12 05:28:35;;;;;;;;;;;;;;;10.52;88.71;100355.97;5096246;28;19949;-60
2023/01/12 05:31:04;;;;;;;;;;;;;;;10.52;88.05;100361.28;5106170;28;19937;-60
2023/01/12 05:33:29;;;;;;;;;;;;;;;10.54;88.75;100344.34;5071819;28;19951;-60
2023/01/12 05:35:55;;;;;;;;;;;;;;;10.50;88.60;100342.72;5053458;28;19944;-60
2023/01/12 05:38:20;;;;;;;;;;;;;;;10.50;89.37;100345.38;5073693;28;19942;-60
2023/01/12 05:40:45;;;;;;;;;;;;;;;10.50;89.32;100334.72;5086690;28;20423;-60
2023/01/12 05:46:01;;;;;;;;;;;;;;;10.52;88.54;100335.56;5091467;28;19962;-61
2023/01/12 05:48:26;;;;;;;;;;;;;;;10.53;89.17;100329.31;5082247;28;19940;-60
2023/01/12 05:50:51;;;;;;;;;;;;;;;10.54;89.67;100332.88;5071213;28;19985;-60
2023/01/12 05:53:17;;;;;;;;;;;;;;;10.54;89.16;100333.72;5071420;28;19935;-60
2023/01/12 05:55:42;;;;;;;;;;;;;;;10.55;90.14;100330.16;5071128;28;20337;-60
2023/01/12 05:58:07;;;;;;;;;;;;;;;10.54;90.29;100328.41;5073715;28;19945;-60
2023/01/12 06:00:32;;;;;;;;;;;;;;;10.56;90.22;100321.25;5072694;28;20263;-60
2023/01/12 06:02:58;;;;;;;;;;;;;;;10.52;90.48;100319.63;5073511;28;19941;-60
2023/01/12 06:05:23;;;;;;;;;;;;;;;10.56;89.83;100313.28;5092241;28;20367;-60
2023/01/12 06:07:48;;;;;;;;;;;;;;;10.49;90.11;100290.41;5080100;28;19934;-60
2023/01/12 06:10:14;;;;;;;;;;;;;;;10.55;89.34;100306.22;5075522;28;20062;-60
2023/01/12 06:15:23;;;;;;;;;;;;;;;10.59;89.12;100309.69;5077279;28;20042;-60
2023/01/12 06:17:48;;;;;;;;;;;;;;;10.59;89.09;100294.56;5092417;28;20035;-60
2023/01/12 06:20:15;;;;;;;;;;;;;;;10.63;88.56;100295.34;5069219;28;19927;-60
2023/01/12 06:22:41;;;;;;;;;;;;;;;10.64;88.94;100291.81;5071451;28;19977;-60
2023/01/12 06:25:07;;;;;;;;;;;;;;;10.60;89.00;100290.13;5089131;28;19928;-60
2023/01/12 06:27:34;;;;;;;;;;;;;;;10.67;88.92;100277.53;5082912;28;20023;-60
2023/01/12 06:29:59;;;;;;;;;;;;;;;10.68;88.42;100292.56;5078162;28;20346;-60
2023/01/12 06:32:24;;;;;;;;;;;;;;;10.66;89.46;100281.97;5075096;28;19931;-60
2023/01/12 06:34:49;;;;;;;;;;;;;;;10.69;88.93;100295.19;5074961;28;19932;-60
2023/01/12 06:37:15;;;;;;;;;;;;;;;10.62;88.85;100283.81;5081778;28;20025;-60
2023/01/12 06:39:40;;;;;;;;;;;;;;;10.66;88.25;100275.78;5090671;28;19935;-60
2023/01/12 06:45:09;;;;;;;;;;;;;;;10.70;87.94;100280.09;5049220;28;19980;-60
2023/01/12 06:47:42;;;;;;;;;;;;;;;10.68;88.83;100260.63;5052300;28;19977;-60
2023/01/12 06:50:08;;;;;;;;;;;;;;;10.73;88.19;100274.66;5063352;28;19959;-60
2023/01/12 06:52:33;;;;;;;;;;;;;;;10.71;88.43;100265.88;5077323;28;19942;-60
2023/01/12 06:54:58;;;;;;;;;;;;;;;10.68;88.02;100274.81;5074183;28;19969;-60
2023/01/12 06:57:23;;;;;;;;;;;;;;;10.74;88.71;100271.13;5074613;28;19929;-60
2023/01/12 06:59:49;;;;;;;;;;;;;;;10.75;87.96;100270.19;5078825;28;20296;-60
2023/01/12 07:02:15;;;;;;;;;;;;;;;10.75;88.11;100270.19;5074474;28;19963;-60
2023/01/12 07:04:40;;;;;;;;;;;;;;;10.78;87.87;100278.06;5074202;28;19954;-60
2023/01/12 07:07:06;;;;;;;;;;;;;;;10.77;87.52;100276.34;5082366;28;19948;-60
2023/01/12 07:09:32;;;;;;;;;;;;;;;10.85;87.12;100276.97;5086935;28;19958;-60
2023/01/12 07:11:57;;;;;;;;;;;;;;;10.81;86.91;100278.00;5074137;28;19958;-60
2023/01/12 07:14:22;;;;;;;;;;;;;;;10.80;87.78;100281.56;5074464;28;19976;-60
2023/01/12 07:16:48;;;;;;;;;;;;;;;10.83;88.11;100270.81;5086245;28;19994;-61
2023/01/12 07:19:13;;;;;;;;;;;;;;;10.79;87.29;100277.19;5074418;28;20296;-61
2023/01/12 07:21:38;;;;;;;;;;;;;;;10.82;88.10;100269.97;5094222;28;19944;-61
2023/01/12 07:24:03;;;;;;;;;;;;;;;10.84;87.86;100269.94;5075599;28;20002;-60
2023/01/12 07:26:29;;;;;;;;;;;;;;;10.86;86.97;100266.28;5094096;28;19967;-60
2023/01/12 07:28:54;;;;;;;;;;;;;;;10.85;87.39;100269.00;5094315;28;19958;-60
2023/01/12 07:31:20;;;;;;;;;;;;;;;10.87;87.65;100267.19;5089464;28;19941;-61
2023/01/12 07:33:45;;;;;;;;;;;;;;;10.88;87.52;100271.56;5096388;28;19941;-61
2023/01/12 07:36:10;;;;;;;;;;;;;;;10.89;87.28;100273.34;5093141;28;20304;-60
2023/01/12 07:38:37;;;;;;;;;;;;;;;10.93;87.48;100272.31;5075548;28;19993;-60
2023/01/12 07:41:02;;;;;;;;;;;;;;;10.93;86.85;100261.66;5075314;28;19941;-60
2023/01/12 07:43:28;;;;;;;;;;;;;;;10.91;86.56;100263.47;5073567;28;19992;-61
2023/01/12 07:45:57;;;;;;;;;;;;;;;10.92;87.12;100270.56;5084616;28;19996;-60
2023/01/12 07:48:23;;;;;;;;;;;;;;;10.97;86.05;100289.94;5093724;28;19933;-60
2023/01/12 07:50:49;;;;;;;;;;;;;;;10.94;87.43;100284.72;5089959;28;19986;-60
2023/01/12 07:53:14;;;;;;;;;;;;;;;10.87;87.34;100283.13;5070736;28;20057;-61
2023/01/12 07:55:42;;;;;;;;;;;;;;;10.89;87.08;100286.63;5070759;28;19984;-61
2023/01/12 07:58:08;;;;;;;;;;;;;;;10.85;87.54;100291.16;5073208;28;19947;-61
2023/01/12 08:00:33;;;;;;;;;;;;;;;10.85;86.81;100301.81;5070270;28;20393;-61
2023/01/12 08:03:03;;;;;;;;;;;;;;;10.88;88.05;100311.47;5082337;28;19944;-61
2023/01/12 08:05:28;;;;;;;;;;;;;;;10.86;87.87;100303.53;5081977;28;19959;-61
2023/01/12 08:07:53;;;;;;;;;;;;;;;10.97;86.83;100317.41;5073001;28;19935;-61
2023/01/12 08:10:19;;;;;;;;;;;;;;;11.00;86.40;100311.13;5090553;28;20861;-61
2023/01/12 08:12:44;;;;;;;;;;;;;;;11.04;86.25;100312.75;5090068;28;19972;-61
2023/01/12 08:15:10;;;;;;;;;;;;;;;11.05;85.96;100317.19;5085931;28;19963;-61
2023/01/12 08:17:38;;;;;;;;;;;;;;;11.06;86.59;100310.94;5091217;28;19935;-61
2023/01/12 08:20:16;;;;;;;;;;;;;;;11.05;86.18;100303.88;5073787;28;19935;-61
2023/01/12 08:22:43;;;;;;;;;;;;;;;11.05;86.12;100298.56;5069062;28;20026;-61
2023/01/12 08:25:12;;;;;;;;;;;;;;;11.07;85.85;100297.59;5085672;28;19939;-60
2023/01/12 08:27:39;;;;;;;;;;;;;;;11.07;85.76;100307.38;5089988;28;19935;-61
2023/01/12 08:30:07;;;;;;;;;;;;;;;11.15;86.27;100305.34;5085194;28;19950;-60
2023/01/12 08:32:33;;;;;;;;;;;;;;;11.12;86.41;100308.13;5088727;28;19938;-60
2023/01/12 08:34:59;;;;;;;;;;;;;;;11.07;86.85;100307.38;5083710;28;19945;-60
2023/01/12 08:37:25;;;;;;;;;;;;;;;11.07;86.13;100296.72;5074972;28;19988;-60
2023/01/12 08:39:51;;;;;;;;;;;;;;;11.08;85.85;100303.78;5081528;28;19964;-60
2023/01/12 08:42:17;;;;;;;;;;;;;;;11.18;86.43;100295.50;5083421;28;19947;-61
2023/01/12 08:44:42;;;;;;;;;;;;;;;11.14;86.56;100314.25;5080367;28;19961;-61
2023/01/12 08:47:21;;;;;;;;;;;;;;;11.23;86.08;100316.63;5075395;28;20407;-61
2023/01/12 08:49:47;;;;;;;;;;;;;;;11.19;85.47;100328.28;5083335;28;20714;-61
2023/01/12 08:52:13;;;;;;;;;;;;;;;11.24;85.73;100337.00;5085282;28;19938;-61
2023/01/12 08:54:38;;;;;;;;;;;;;;;11.18;85.12;100340.75;5091019;28;20353;-61
2023/01/12 08:57:03;;;;;;;;;;;;;;;11.26;85.63;100328.06;5091003;28;19932;-61
2023/01/12 08:59:29;;;;;;;;;;;;;;;11.35;85.36;100329.59;5085431;28;19938;-61
2023/01/12 09:01:54;;;;;;;;;;;;;;;11.29;85.03;100325.31;5079639;28;20036;-61
2023/01/12 09:04:19;;;;;;;;;;;;;;;11.36;84.38;100332.19;5090015;28;20408;-61
2023/01/12 09:06:45;;;;;;;;;;;;;;;11.39;83.80;100324.13;5090147;28;20614;-61
2023/01/12 09:09:12;;;;;;;;;;;;;;;11.42;83.99;100320.47;5089516;28;19970;-61
2023/01/12 09:11:39;;;;;;;;;;;;;;;11.40;84.23;100333.84;5071058;28;20008;-61
2023/01/12 09:14:04;;;;;;;;;;;;;;;11.36;83.42;100320.66;5074364;28;19941;-61
2023/01/12 09:16:30;;;;;;;;;;;;;;;11.48;84.55;100341.59;5079175;28;19945;-61
2023/01/12 09:18:55;;;;;;;;;;;;;;;11.48;83.17;100333.63;5088973;28;19938;-62
2023/01/12 09:21:22;;;;;;;;;;;;;;;11.45;82.86;100331.91;5072179;28;19959;-61
2023/01/12 09:23:54;;;;;;;;;;;;;;;11.42;84.18;100333.78;5075987;28;19938;-62
2023/01/12 09:26:20;;;;;;;;;;;;;;;11.43;83.35;100339.06;5069590;28;20020;-62
2023/01/12 09:28:46;;;;;;;;;;;;;;;11.38;83.77;100321.50;5087011;28;19951;-62
2023/01/12 09:31:12;;;;;;;;;;;;;;;11.51;83.10;100341.50;5091844;28;19932;-62
2023/01/12 09:33:38;;;;;;;;;;;;;;;11.58;83.05;100345.72;5078254;28;19972;-62
2023/01/12 09:36:11;;;;;;;;;;;;;;;11.62;83.14;100329.59;5069752;28;20414;-63
2023/01/12 09:38:40;;;;;;;;;;;;;;;11.63;82.87;100335.81;5089296;28;19938;-62
2023/01/12 09:47:03;;;;;;;;;;;;;;;11.59;81.79;100328.81;5077229;28;19940;-62
2023/01/12 09:49:32;;;;;;;;;;;;;;;11.60;81.09;100317.22;5086795;28;19960;-62
2023/01/12 09:52:00;;;;;;;;;;;;;;;11.64;81.73;100306.47;5086067;28;20387;-62
2023/01/12 09:54:26;;;;;;;;;;;;;;;11.65;81.06;100302.00;5082675;28;19996;-62
2023/01/12 09:57:08;;;;;;;;;;;;;;;11.72;80.14;100308.88;5088918;28;19966;-62
2023/01/12 09:59:33;;;;;;;;;;;;;;;11.74;81.37;100291.06;5090609;28;20410;-62
2023/01/12 10:01:59;;;;;;;;;;;;;;;11.79;80.73;100302.44;5091075;28;19933;-62
2023/01/12 10:04:24;;;;;;;;;;;;;;;11.76;81.04;100300.72;5089057;28;19954;-62
2023/01/12 10:06:50;;;;;;;;;;;;;;;11.77;80.11;100291.81;5082263;28;19967;-62
2023/01/12 10:09:17;;;;;;;;;;;;;;;11.86;81.28;100296.00;5072948;28;20468;-62
2023/01/12 10:11:52;;;;;;;;;;;;;;;11.88;81.03;100299.44;5081134;28;20034;-62
2023/01/12 10:14:20;;;;;;;;;;;;;;;11.86;81.41;100298.66;5076079;28;19937;-62
2023/01/12 10:16:45;;;;;;;;;;;;;;;11.87;81.27;100300.38;5084880;28;20034;-62
2023/01/12 10:19:21;;;;;;;;;;;;;;;11.87;80.51;100297.72;5087224;28;20045;-62
2023/01/12 10:21:46;;;;;;;;;;;;;;;11.92;80.92;100298.44;5080281;28;19940;-62
2023/01/12 10:24:12;;;;;;;;;;;;;;;12.01;81.00;100291.94;5076115;28;19934;-62
2023/01/12 10:26:40;;;;;;;;;;;;;;;11.98;80.85;100302.69;5080725;28;19958;-62
2023/01/12 10:29:09;;;;;;;;;;;;;;;11.89;82.06;100280.75;5084232;28;20008;-62
2023/01/12 10:31:34;;;;;;;;;;;;;;;11.90;81.74;100287.84;5090411;28;19938;-62
2023/01/12 10:34:08;;;;;;;;;;;;;;;11.91;81.16;100278.00;5086323;28;19939;-62
2023/01/12 10:36:35;;;;;;;;;;;;;;;12.02;81.95;100285.66;5070765;28;20455;-62
2023/01/12 10:39:02;;;;;;;;;;;;;;;12.03;81.17;100285.59;5086057;28;19944;-62
2023/01/12 10:41:29;;;;;;;;;;;;;;;12.05;81.50;100277.56;5070832;28;20315;-62
2023/01/12 10:43:57;;;;;;;;;;;;;;;12.07;81.59;100279.25;5070726;28;19942;-62
2023/01/12 10:46:25;;;;;;;;;;;;;;;12.13;81.27;100273.72;5072825;28;20032;-62
2023/01/12 10:48:51;;;;;;;;;;;;;;;12.14;80.51;100263.91;5070952;28;20330;-62
2023/01/12 10:51:27;;;;;;;;;;;;;;;12.08;81.25;100262.31;5070909;28;19936;-62
2023/01/12 10:54:01;;;;;;;;;;;;;;;12.17;81.04;100259.34;5071537;28;19998;-62
2023/01/12 10:56:26;;;;;;;;;;;;;;;12.13;81.07;100262.16;5090630;28;20440;-62
2023/01/12 10:58:53;;;;;;;;;;;;;;;12.16;80.98;100262.94;5090959;28;19937;-62
2023/01/12 11:01:19;;;;;;;;;;;;;;;12.14;81.85;100259.44;5074655;28;20672;-62
2023/01/12 11:03:44;;;;;;;;;;;;;;;12.20;81.32;100263.69;5078694;28;19929;-62
2023/01/12 11:06:19;;;;;;;;;;;;;;;12.11;81.30;100251.53;5090707;28;19941;-62
2023/01/12 11:08:44;;;;;;;;;;;;;;;12.12;82.27;100261.31;5073009;28;19929;-62
2023/01/12 11:11:30;;;;;;;;;;;;;;;12.15;82.10;100261.19;5071415;28;19977;-62
2023/01/12 11:13:56;;;;;;;;;;;;;;;12.12;81.61;100258.66;5073164;28;20296;-62
2023/01/12 11:16:38;;;;;;;;;;;;;;;12.11;81.67;100267.53;5074079;28;19964;-62
2023/01/12 11:19:10;;;;;;;;;;;;;;;12.15;81.98;100258.53;5082095;28;19979;-62
2023/01/12 11:21:39;;;;;;;;;;;;;;;12.17;82.65;100254.03;5094235;28;19998;-62
2023/01/12 11:24:12;;;;;;;;;;;;;;;12.18;81.96;100257.53;5094161;28;20020;-62
2023/01/12 11:26:43;;;;;;;;;;;;;;;12.23;82.83;100258.25;5094218;28;19929;-62
2023/01/12 11:29:14;;;;;;;;;;;;;;;12.20;82.18;100271.69;5076666;28;19955;-62
2023/01/12 11:31:40;;;;;;;;;;;;;;;12.14;82.64;100256.78;5073845;28;19939;-62
2023/01/12 11:34:15;;;;;;;;;;;;;;;12.17;82.67;100255.81;5080088;28;20673;-61
2023/01/12 11:36:42;;;;;;;;;;;;;;;12.24;83.14;100254.69;5092817;28;19940;-62
2023/01/12 11:39:14;;;;;;;;;;;;;;;12.21;83.60;100249.47;5074967;28;20287;-62
2023/01/12 11:43:47;;;;;;;;;;;;;;;12.28;82.88;100246.50;5073105;28;19933;-63
2023/01/12 11:44:33;;;;;;;;;;;;;;;12.15;82.16;100229.19;5072212;28;19933;-63
2023/01/12 11:47:03;;;;;;;;;;;;;;;12.17;82.52;100238.03;5072115;28;20685;-63
2023/01/12 11:49:37;;;;;;;;;;;;;;;12.20;82.18;100235.25;5075264;28;19945;-62
2023/01/12 11:52:03;;;;;;;;;;;;;;;12.24;82.37;100244.00;5073389;28;19929;-62
2023/01/12 11:54:30;;;;;;;3.70;1.90;;;;;;;12.18;82.49;100222.88;5071191;28;20493;-64
2023/01/12 11:57:31;;;;;;;3.15;2.50;;;;;;;12.16;82.29;100214.94;5077118;28;20044;-62
2023/01/12 12:00:12;;;;;;;3.17;1.70;;;;;;;12.31;83.06;100222.38;5091888;28;20046;-63
2023/01/12 12:02:51;;;;;;;3.42;1.63;;;;;;;12.35;83.37;100215.16;5088171;28;20059;-63
2023/01/12 12:05:41;;;;;;;2.97;1.40;;;;;;;12.32;82.83;100218.78;5071543;28;20036;-63
2023/01/12 12:08:16;;;;;;;3.63;1.50;;;;;;;12.32;83.07;100212.59;5088524;28;20036;-63
2023/01/12 12:11:10;;;;;;;4.50;2.05;;;;;;;12.28;83.79;100194.94;5092802;28;20062;-63
2023/01/12 12:13:35;;;;;;;;;;;;;;;12.30;84.10;100191.31;5092851;28;20470;-63
2023/01/12 12:16:25;;;;;;;1.80;1.40;;;;;;;12.29;83.95;100189.56;5092568;28;19939;-63
2023/01/12 12:19:01;;;;;;;2.60;1.60;;;;;;;12.26;83.28;100189.66;5092804;28;20031;-63
2023/01/12 12:21:29;;;;;;;3.47;2.08;;;;;;;12.33;83.06;100195.66;5087583;28;20041;-63
2023/01/12 12:23:55;;;;;;;1.58;1.48;;;;;;;12.27;82.37;100183.44;5083346;28;20027;-63
2023/01/12 12:26:29;;;;;;;4.65;1.98;;;;;;;12.30;82.28;100182.44;5092638;28;20098;-63
2023/01/12 12:28:55;;;;;;;3.45;1.63;;;;;;;12.39;82.77;100177.63;5092621;28;20518;-63
2023/01/12 12:31:58;;;;;;;6.20;1.85;;;;;;;12.34;82.11;100179.59;5081733;28;20028;-63
2023/01/12 12:34:36;;;;;;;3.05;2.35;;;;;;;12.34;82.15;100176.91;5091558;28;20024;-63
2023/01/12 12:37:12;;;;;;;5.90;1.70;;;;;;;12.28;82.58;100179.81;5087023;28;20078;-63
2023/01/12 12:39:47;;;;;;;5.35;1.90;;;;;;;12.34;82.16;100173.41;5074397;28;20044;-63
2023/01/12 12:45:17;;;;;;;2.97;1.90;;;;;;;12.36;82.08;100171.53;5071854;28;20097;-62
2023/01/12 12:47:55;;;;;;;2.65;1.77;;;;;;;12.35;82.51;100181.34;5071774;28;20547;-62
2023/01/12 12:50:26;;;;;;;4.38;1.52;;;;;;;12.40;82.87;100160.72;5074191;28;20480;-61
2023/01/12 12:53:23;;;;;;;5.75;1.95;;;;;;;12.36;82.13;100164.41;5071965;28;20040;-62
2023/01/12 12:55:50;;;;;;;1.70;1.50;;;;;;;12.37;82.55;100158.13;5071512;28;20048;-62
2023/01/12 12:58:21;;;;;;;3.58;1.77;;;;;;;12.44;82.57;100162.31;5072883;28;20034;-62
2023/01/12 13:00:49;;;;;;;2.53;2.00;;;;;;;12.45;82.69;100163.19;5091829;28;20028;-62
2023/01/12 13:03:40;;;;;;;4.47;1.80;;;;;;;12.55;81.91;100159.25;5091093;28;20455;-64
2023/01/12 13:06:08;;;;;;;3.60;2.03;;;;;;;12.57;81.93;100158.25;5064334;28;20044;-62
2023/01/12 13:08:34;;;;;;;3.53;1.83;;;;;;;12.54;81.95;100153.03;5089141;28;20459;-61